SBSJ

Professor Urbano Ernesto Stumpf Airport

São José Dos Campos, Brazil
TAF SBSJ 211630Z 2118/2218 18010KT 7000 SCT020 TX29/2118Z TN14/2208Z BECMG 2118/2120 24007KT BECMG 2200/2202 19005KT BECMG 2206/2208 00000 KT 4000 BR BKN010 BECMG 2208/2211 04005KT 7000 NSW BKN020 BECMG 2214/22 16 16005KT RMK PGW
Issued Valid From Valid To
Jul-21 @ 16:30 UTC
(6 hours ago)
Jul-21 @ 18:00 UTC
(5 hours ago)
Jul-22 @ 18:00 UTC
(in 19 hours)
Jul-21 @ 18:00 to Jul-22 @ 18:00
TAF SBSJ 211630Z 2118/2218 18010KT 7000 SCT020 TX29/2118Z TN14/2208Z
Wind Visibility Clouds
180° at 10 knots 7,001 meters
  • Scattered at 2,000' AGL
Becoming Jul-21 @ 18:00 to Jul-22 @ 00:00
BECMG 2118/2120 24007KT
Wind Visibility Clouds
240° at 7 knots 7,001 meters
  • Scattered at 2,000' AGL
Becoming Jul-22 @ 00:00 to Jul-22 @ 06:00
BECMG 2200/2202 19005KT
Wind Visibility Clouds
190° at 5 knots 7,001 meters
  • Scattered at 2,000' AGL
Becoming Jul-22 @ 06:00 to Jul-22 @ 08:00
BECMG 2206/2208 00000 KT 4000 BR BKN010
Visibility Clouds Conditions
4,007 meters
  • Broken at 1,000' AGL
  • Mist
Becoming Jul-22 @ 08:00 to Jul-22 @ 18:00
BECMG 2208/2211 04005KT 7000 NSW BKN020
Wind Visibility Clouds Conditions
40° at 5 knots 7,001 meters
  • Broken at 2,000' AGL
TAF SBSJ 211630Z 2118/2218 18010KT 7000 SCT020 TX29/2118Z TN14/2208Z BECMG 2118/2120 24007KT BECMG 2200/2202 19005KT BECMG 2206/2208 00000 KT 4000 BR BKN010 BECMG 2208/2211 04005KT 7000 NSW BKN020 BECMG 2214/22 16 16005KT RMK PGW
Issued Jul-21 @ 16:30 UTC
(6 hours ago)
Valid From Jul-21 @ 18:00 UTC
(5 hours ago)
Valid To Jul-22 @ 18:00 UTC
(in 19 hours)
Jul-21 @ 18:00 - Jul-22 @ 18:00
Wind Visibility
180° at 10 knots 7,001 meters
Clouds
  • Scattered at 2,000' AGL
Becoming Jul-21 @ 18:00 - Jul-22 @ 00:00
Wind Visibility
240° at 7 knots 7,001 meters
Clouds
  • Scattered at 2,000' AGL
Becoming Jul-22 @ 00:00 - Jul-22 @ 06:00
Wind Visibility
190° at 5 knots 7,001 meters
Clouds
  • Scattered at 2,000' AGL
Becoming Jul-22 @ 06:00 - Jul-22 @ 08:00
Clouds
  • Broken at 1,000' AGL
Conditions
  • Mist
Becoming Jul-22 @ 08:00 - Jul-22 @ 18:00
Wind Visibility
40° at 5 knots 7,001 meters
Clouds
  • Broken at 2,000' AGL
Conditions